Time;durP1;ratioP1;P1;durP2;ratioP2;P2;SDS_P1;SDS_P2;PMS_P1;PMS_P2;Temp;Humidity;BMP_temperature;BMP_pressure;BME280_temperature;BME280_humidity;BME280_pressure;Samples;Min_cycle;Max_cycle;Signal;HPM_P1;HPM_P2
2022/06/17 00:01:02;;;;;;;19.07;12.33;;;;;;;15.60;81.01;102224.94;5066958;28;20040;-81
2022/06/17 00:03:31;;;;;;;20.83;13.20;;;;;;;15.64;80.23;102220.72;5074580;28;20115;-81
2022/06/17 00:05:58;;;;;;;17.37;12.43;;;;;;;15.56;82.75;102216.34;5056324;28;20043;-81
2022/06/17 00:08:28;;;;;;;16.23;12.17;;;;;;;15.56;82.55;102216.34;5051542;28;20107;-81
2022/06/17 00:10:55;;;;;;;17.27;12.83;;;;;;;15.66;81.56;102211.25;5054833;28;20029;-81
2022/06/17 00:13:20;;;;;;;17.03;12.83;;;;;;;15.57;81.51;102198.91;5061073;28;20032;-80
2022/06/17 00:15:47;;;;;;;17.50;12.47;;;;;;;15.66;83.15;102204.97;5057536;28;20033;-80
2022/06/17 00:18:14;;;;;;;16.53;12.90;;;;;;;15.65;81.80;102214.22;5052582;28;20032;-80
2022/06/17 00:20:40;;;;;;;17.40;12.67;;;;;;;15.63;82.16;102217.16;5057480;28;20032;-80
2022/06/17 00:23:15;;;;;;;15.23;12.30;;;;;;;15.78;80.67;102222.41;5074425;28;20051;-81
2022/06/17 00:25:42;;;;;;;15.67;12.03;;;;;;;15.86;80.16;102213.16;5034499;28;20083;-80
2022/06/17 00:28:28;;;;;;;15.23;11.73;;;;;;;15.92;78.24;102220.50;5018017;28;20036;-81
2022/06/17 00:30:53;;;;;;;16.73;11.90;;;;;;;15.96;78.63;102221.75;5047923;28;20029;-80
2022/06/17 00:33:19;;;;;;;15.73;11.77;;;;;;;15.82;79.26;102218.22;5055030;28;20075;-81
2022/06/17 00:35:49;;;;;;;16.17;11.53;;;;;;;15.79;78.38;102212.28;5034338;28;20071;-80
2022/06/17 00:38:22;;;;;;;15.60;11.83;;;;;;;15.86;78.74;102218.63;5036896;28;20411;-81
2022/06/17 00:40:48;;;;;;;15.60;12.47;;;;;;;15.93;79.85;102229.56;5055303;28;20108;-80
2022/06/17 00:43:26;;;;;;;17.50;12.20;;;;;;;15.86;79.02;102218.63;5075414;28;20313;-81
2022/06/17 00:46:23;;;;;;;14.97;12.30;;;;;;;15.88;78.56;102224.72;5056539;28;20048;-80
2022/06/17 00:49:06;;;;;;;17.20;12.87;;;;;;;15.98;74.73;102222.38;5054480;28;20544;-81
2022/06/17 00:51:46;;;;;;;16.27;11.87;;;;;;;15.99;73.84;102215.88;5054077;28;20025;-81
2022/06/17 00:54:22;;;;;;;15.97;11.83;;;;;;;16.07;73.42;102216.69;5060959;28;20036;-81
2022/06/17 00:56:48;;;;;;;14.40;11.70;;;;;;;16.08;76.37;102226.56;5063273;28;20485;-81
2022/06/17 00:59:14;;;;;;;15.63;12.70;;;;;;;16.01;78.99;102230.16;5053025;28;20029;-81
2022/06/17 01:01:51;;;;;;;15.77;11.57;;;;;;;16.00;76.25;102225.72;5054858;28;20028;-81
2022/06/17 01:04:21;;;;;;;19.10;11.93;;;;;;;16.08;73.40;102229.31;5053627;28;20028;-81
2022/06/17 01:06:52;;;;;;;16.70;11.60;;;;;;;16.18;72.53;102233.28;5052521;28;20025;-81
2022/06/17 01:12:15;;;;;;;14.65;11.48;;;;;;;16.20;71.98;102222.13;5047416;28;20388;-81
2022/06/17 01:14:41;;;;;;;13.83;11.60;;;;;;;16.30;71.52;102236.16;5056976;28;20035;-81
2022/06/17 01:17:09;;;;;;;15.60;11.67;;;;;;;16.23;73.61;102232.63;5053923;28;20044;-80
2022/06/17 01:19:41;;;;;;;15.80;11.60;;;;;;;16.16;74.98;102229.06;5052004;28;20025;-80
2022/06/17 01:22:12;;;;;;;17.77;11.87;;;;;;;16.28;71.38;102230.06;5053189;28;20419;-81
2022/06/17 01:24:38;;;;;;;17.73;11.37;;;;;;;16.30;70.52;102227.94;5053995;28;20031;-81
2022/06/17 01:27:04;;;;;;;15.17;11.37;;;;;;;16.31;70.36;102224.16;5053568;28;20025;-81
2022/06/17 01:29:30;;;;;;;15.03;11.43;;;;;;;16.33;70.19;102229.41;5052418;28;20029;-81
2022/06/17 01:31:56;;;;;;;14.57;11.40;;;;;;;16.31;69.72;102223.34;5050709;28;20063;-81
2022/06/17 01:34:22;;;;;;;18.00;11.53;;;;;;;16.30;70.00;102219.75;5036451;28;20028;-80
2022/06/17 01:36:49;;;;;;;16.37;11.30;;;;;;;16.37;69.80;102219.72;5050220;28;20021;-81
2022/06/17 01:39:16;;;;;;;14.83;11.40;;;;;;;16.34;69.59;102218.25;5054230;28;20037;-81
2022/06/17 01:41:43;;;;;;;15.90;11.27;;;;;;;16.36;69.66;102226.28;5060356;28;20369;-81
2022/06/17 01:44:12;;;;;;;16.87;11.77;;;;;;;16.29;70.16;102212.63;5053709;28;20040;-81
2022/06/17 01:46:44;;;;;;;15.30;11.70;;;;;;;16.33;70.04;102216.59;5065677;28;20526;-81
2022/06/17 01:49:16;;;;;;;16.03;11.20;;;;;;;16.34;69.77;102228.38;5053587;28;20052;-81
2022/06/17 01:51:47;;;;;;;15.43;10.97;;;;;;;16.32;69.18;102230.47;5053621;28;20345;-80
2022/06/17 01:54:28;;;;;;;15.70;11.70;;;;;;;16.27;71.79;102222.09;5040195;28;20375;-81
2022/06/17 01:56:57;;;;;;;15.73;11.40;;;;;;;16.14;71.33;102226.56;5052696;28;20043;-81
2022/06/17 01:59:34;;;;;;;15.33;11.57;;;;;;;16.07;72.04;102222.97;5053935;28;20025;-81
2022/06/17 02:02:03;;;;;;;16.20;12.00;;;;;;;16.09;74.00;102220.03;5053208;28;20028;-80
2022/06/17 02:04:34;;;;;;;15.47;11.87;;;;;;;16.06;73.14;102220.47;5053605;28;20029;-81
2022/06/17 02:07:23;;;;;;;15.47;11.80;;;;;;;16.01;73.95;102230.16;5051105;28;20111;-81
2022/06/17 02:09:48;;;;;;;14.50;11.60;;;;;;;15.94;73.66;102223.88;5052050;28;20388;-81
2022/06/17 02:12:18;;;;;;;14.67;11.87;;;;;;;15.88;75.61;102230.19;5052842;28;20040;-81
2022/06/17 02:14:45;;;;;;;15.27;12.00;;;;;;;16.01;71.72;102232.88;5052648;28;20033;-81
2022/06/17 02:17:11;;;;;;;15.33;12.00;;;;;;;15.99;72.46;102229.53;5053908;28;20029;-81
2022/06/17 02:19:40;;;;;;;16.93;12.07;;;;;;;15.97;71.69;102228.91;5052633;28;20098;-81
2022/06/17 02:22:32;;;;;;;17.57;11.83;;;;;;;15.96;71.65;102224.47;5053291;28;20025;-81
2022/06/17 02:25:06;;;;;;;16.97;11.60;;;;;;;15.96;71.76;102229.94;5034211;28;20032;-81
2022/06/17 02:27:33;;;;;;;16.73;13.07;;;;;;;15.97;71.34;102223.44;5057890;28;20028;-81
2022/06/17 02:30:00;;;;;;;18.50;12.80;;;;;;;15.95;71.56;102225.56;5053314;28;20029;-81
2022/06/17 02:32:27;;;;;;;14.30;11.40;;;;;;;15.95;71.36;102225.56;5057959;28;20094;-81
2022/06/17 02:35:00;;;;;;;17.27;11.87;;;;;;;15.93;71.80;102218.63;5052921;28;20483;-81
2022/06/17 02:37:27;;;;;;;18.75;12.82;;;;;;;15.91;71.57;102216.09;5058973;28;20033;-81
2022/06/17 02:39:56;;;;;;;17.20;12.50;;;;;;;15.92;71.49;102220.50;5050289;28;20029;-81
2022/06/17 02:42:24;;;;;;;19.67;12.87;;;;;;;15.88;71.38;102210.22;5052938;28;20029;-81
2022/06/17 02:44:55;;;;;;;17.20;13.20;;;;;;;15.85;71.54;102206.03;5053426;28;20127;-81
2022/06/17 02:47:22;;;;;;;16.30;12.37;;;;;;;15.86;71.74;102213.16;5057807;28;20025;-81
2022/06/17 02:49:47;;;;;;;15.17;12.43;;;;;;;15.84;71.81;102213.38;5052784;28;20040;-80
2022/06/17 02:52:19;;;;;;;16.90;13.13;;;;;;;15.84;71.61;102218.00;5052114;28;20059;-80
2022/06/17 02:54:51;;;;;;;16.93;13.03;;;;;;;15.82;71.53;102220.94;5050428;28;20024;-81
2022/06/17 02:57:23;;;;;;;18.53;13.00;;;;;;;15.79;71.83;102209.56;5053781;28;20025;-81
2022/06/17 02:59:54;;;;;;;16.03;13.50;;;;;;;15.81;71.53;102211.06;5063824;28;20361;-81
2022/06/17 03:02:29;;;;;;;18.90;13.50;;;;;;;15.81;71.77;102219.25;5050952;28;20032;-81
2022/06/17 03:04:55;;;;;;;15.90;13.30;;;;;;;15.78;71.89;102210.63;5052594;28;20028;-80
2022/06/17 03:07:23;;;;;;;18.63;14.00;;;;;;;15.77;71.97;102211.69;5050099;28;20036;-80
2022/06/17 03:09:48;;;;;;;16.53;13.53;;;;;;;15.74;71.90;102206.66;5053681;28;20055;-81
2022/06/17 03:12:18;;;;;;;18.50;14.37;;;;;;;15.74;71.78;102210.22;5052208;28;20033;-81
2022/06/17 03:14:54;;;;;;;16.50;13.17;;;;;;;15.75;71.72;102205.56;5052783;28;20028;-80
2022/06/17 03:17:23;;;;;;;16.90;13.57;;;;;;;15.76;71.39;102215.47;5052488;28;20508;-81
2022/06/17 03:19:51;;;;;;;17.77;13.53;;;;;;;15.74;71.53;102214.84;5053811;28;20036;-81
2022/06/17 03:22:16;;;;;;;16.97;13.50;;;;;;;15.76;71.29;102221.78;5056859;28;20033;-80
2022/06/17 03:24:54;;;;;;;16.40;13.67;;;;;;;15.72;73.06;102223.25;5053060;28;20031;-81
2022/06/17 03:27:29;;;;;;;21.27;14.17;;;;;;;15.70;72.77;102228.91;5034834;28;20543;-81
2022/06/17 03:29:59;;;;;;;18.50;14.50;;;;;;;15.68;73.84;102225.56;5052862;28;20028;-81
2022/06/17 03:32:38;;;;;;;17.40;13.53;;;;;;;15.72;73.52;102233.34;5051953;28;20036;-81
2022/06/17 03:35:04;;;;;;;18.87;13.30;;;;;;;15.57;73.97;102239.88;5054358;28;20029;-80
2022/06/17 03:37:55;;;;;;;17.80;13.93;;;;;;;15.69;73.96;102243.66;5056681;28;20058;-80
2022/06/17 03:40:26;;;;;;;19.90;13.53;;;;;;;15.56;74.38;102240.94;5055446;28;20142;-81
2022/06/17 03:43:32;;;;;;;19.63;14.03;;;;;;;15.72;72.07;102249.72;5045065;28;20037;-80
2022/06/17 03:46:04;;;;;;;16.17;13.10;;;;;;;15.73;71.78;102249.50;5035909;28;20052;-81
2022/06/17 03:48:42;;;;;;;16.60;13.40;;;;;;;15.76;71.80;102254.56;5055722;28;20025;-80
2022/06/17 03:51:15;;;;;;;18.37;14.00;;;;;;;15.78;72.60;102247.00;5056295;28;20021;-81
2022/06/17 03:53:42;;;;;;;17.13;12.90;;;;;;;15.85;70.78;102247.00;5055425;28;20025;-81
2022/06/17 03:56:07;;;;;;;16.70;13.40;;;;;;;15.81;71.34;102243.03;5036248;28;20032;-81
2022/06/17 03:58:36;;;;;;;17.63;13.50;;;;;;;15.91;70.49;102257.09;5060898;28;20460;-81
2022/06/17 04:01:01;;;;;;;20.97;14.20;;;;;;;15.94;70.55;102251.22;5058463;28;20376;-81
2022/06/17 04:03:32;;;;;;;19.57;14.27;;;;;;;15.96;70.74;102246.34;5055959;28;20035;-80
2022/06/17 04:06:09;;;;;;;18.23;14.03;;;;;;;16.00;70.41;102242.13;5055379;28;20029;-80
2022/06/17 04:08:59;;;;;;;18.87;14.43;;;;;;;16.03;70.48;102247.19;5054441;28;20041;-81
2022/06/17 04:11:29;;;;;;;16.97;13.70;;;;;;;16.09;70.89;102233.69;5036274;28;20083;-80
2022/06/17 04:13:58;;;;;;;18.47;14.50;;;;;;;16.12;69.89;102246.97;5071136;28;20047;-80
2022/06/17 04:16:34;;;;;;;19.80;14.67;;;;;;;16.15;69.88;102255.56;5049979;28;20033;-80
2022/06/17 04:19:14;;;;;;;19.00;14.10;;;;;;;16.19;70.21;102250.50;5037854;28;20035;-81
2022/06/17 04:21:39;;;;;;;22.17;15.10;;;;;;;16.24;70.06;102241.66;5053262;28;20048;-80
2022/06/17 04:24:18;;;;;;;21.47;15.60;;;;;;;16.26;69.76;102243.13;5042358;28;20063;-80
2022/06/17 04:26:47;;;;;;;20.07;15.17;;;;;;;16.31;69.05;102239.75;5055866;28;20017;-81
2022/06/17 04:29:21;;;;;;;18.83;15.30;;;;;;;16.29;69.60;102228.16;5054860;28;20021;-80
2022/06/17 04:31:59;;;;;;;18.55;14.55;;;;;;;16.37;69.09;102238.88;5054361;28;20108;-81
2022/06/17 04:34:25;;;;;;;19.30;14.20;;;;;;;16.37;69.40;102234.25;5054558;28;20472;-80
2022/06/17 04:37:00;;;;;;;18.47;15.03;;;;;;;16.34;69.13;102228.38;5054825;28;20025;-80
2022/06/17 04:39:35;;;;;;;18.67;14.30;;;;;;;16.38;68.52;102238.63;5054935;28;20457;-81
2022/06/17 04:42:05;;;;;;;21.73;15.30;;;;;;;16.37;68.95;102233.38;5052685;28;20074;-81
2022/06/17 04:44:30;;;;;;;18.73;15.40;;;;;;;16.35;68.97;102221.84;5053707;28;20342;-81
2022/06/17 04:47:04;;;;;;;19.83;15.77;;;;;;;16.32;69.03;102223.13;5055090;28;20078;-80
2022/06/17 04:49:36;;;;;;;18.83;14.65;;;;;;;16.38;69.05;102229.59;5052644;28;20025;-80
2022/06/17 04:52:06;;;;;;;19.87;15.17;;;;;;;16.41;68.58;102231.06;5059582;28;20064;-81
2022/06/17 04:54:33;;;;;;;19.17;15.10;;;;;;;16.41;68.52;102222.88;5064223;28;20111;-82
2022/06/17 04:57:02;;;;;;;19.30;15.13;;;;;;;16.41;68.74;102229.16;5049839;28;20029;-80
2022/06/17 04:59:44;;;;;;;21.00;15.73;;;;;;;16.47;68.65;102211.03;5054047;28;20048;-80
2022/06/17 05:02:20;;;;;;;20.50;15.63;;;;;;;16.44;68.61;102215.06;5051990;28;20478;-80
2022/06/17 05:04:49;;;;;;;21.50;15.97;;;;;;;16.46;68.48;102217.59;5035216;28;20043;-81
2022/06/17 05:07:15;;;;;;;21.17;14.93;;;;;;;16.45;68.36;102224.09;5055032;28;20025;-81
2022/06/17 05:09:52;;;;;;;19.80;15.20;;;;;;;16.53;69.23;102232.06;5052904;28;20080;-81
2022/06/17 05:12:20;;;;;;;18.17;14.50;;;;;;;16.56;69.02;102231.63;5054012;28;20052;-80
2022/06/17 05:14:56;;;;;;;19.60;14.30;;;;;;;16.59;68.43;102219.41;5053327;28;20023;-81
2022/06/17 05:17:21;;;;;;;18.10;13.90;;;;;;;16.64;68.22;102217.69;5054385;28;20078;-81
2022/06/17 05:19:50;;;;;;;18.80;14.70;;;;;;;16.68;68.73;102213.44;5034713;28;20029;-81
2022/06/17 05:22:31;;;;;;;18.50;13.97;;;;;;;16.75;68.01;102207.94;5051961;28;20039;-81
2022/06/17 05:24:58;;;;;;;18.00;14.20;;;;;;;16.85;67.69;102202.00;5053881;28;20082;-81
2022/06/17 05:27:23;;;;;;;16.17;13.57;;;;;;;16.92;67.23;102205.56;5054259;28;20527;-81
2022/06/17 05:29:49;;;;;;;18.63;13.63;;;;;;;16.98;66.54;102207.41;5063699;28;20112;-81
2022/06/17 05:32:19;;;;;;;18.10;14.17;;;;;;;17.04;67.38;102212.00;5054470;28;20508;-81
2022/06/17 05:34:45;;;;;;;19.83;13.47;;;;;;;17.13;67.14;102198.03;5063307;28;20363;-81
2022/06/17 05:37:17;;;;;;;18.87;13.47;;;;;;;17.23;67.67;102205.75;5053003;28;20029;-81
2022/06/17 05:39:42;;;;;;;18.53;13.40;;;;;;;17.19;66.16;102206.19;5049004;28;20065;-80
2022/06/17 05:42:11;;;;;;;17.80;13.27;;;;;;;17.32;65.73;102221.66;5052654;28;20065;-80
2022/06/17 05:44:36;;;;;;;19.60;14.10;;;;;;;17.30;66.41;102226.56;5033776;28;20037;-81
2022/06/17 05:47:01;;;;;;;19.17;13.63;;;;;;;17.35;65.85;102223.97;5055198;28;20463;-81
2022/06/17 05:49:28;;;;;;;18.37;14.10;;;;;;;17.40;66.19;102226.03;5074249;28;20040;-81
2022/06/17 05:51:53;;;;;;;17.77;14.20;;;;;;;17.41;66.36;102215.91;5042627;28;20465;-81
2022/06/17 05:54:18;;;;;;;17.73;13.90;;;;;;;17.50;66.24;102220.03;5053189;28;20040;-81
2022/06/17 05:56:44;;;;;;;18.30;13.80;;;;;;;17.53;66.52;102205.91;5052468;28;20025;-81
2022/06/17 05:59:10;;;;;;;18.80;14.70;;;;;;;17.58;66.62;102186.88;5053546;28;20033;-81
2022/06/17 06:01:36;;;;;;;18.37;14.30;;;;;;;17.63;67.09;102189.78;5052560;28;20033;-80
2022/06/17 06:04:02;;;;;;;18.57;14.20;;;;;;;17.76;66.79;102190.69;5053050;28;20025;-81
2022/06/17 06:06:27;;;;;;;19.77;14.57;;;;;;;17.83;65.81;102196.97;5034506;28;20123;-81
2022/06/17 06:08:52;;;;;;;23.90;14.50;;;;;;;17.88;65.94;102192.47;5062002;28;20135;-81
2022/06/17 06:11:18;;;;;;;16.70;13.60;;;;;;;17.86;64.99;102186.38;5050440;28;20025;-81
2022/06/17 06:13:43;;;;;;;21.07;14.13;;;;;;;17.93;65.31;102182.75;5051310;28;20033;-81
2022/06/17 06:16:09;;;;;;;20.63;13.93;;;;;;;17.96;64.86;102180.38;5052949;28;20080;-80
2022/06/17 06:18:37;;;;;;;20.43;13.80;;;;;;;17.96;65.07;102177.63;5061529;28;20086;-81
2022/06/17 06:21:04;;;;;;;20.17;14.43;;;;;;;18.04;65.36;102181.97;5043861;28;20021;-81
2022/06/17 06:23:38;;;;;;;16.57;13.17;;;;;;;18.09;65.12;102178.53;5058819;28;20021;-80
2022/06/17 06:26:05;;;;;;;19.30;13.38;;;;;;;18.12;64.00;102178.94;5034112;28;20098;-81
2022/06/17 06:28:31;;;;;;;18.37;12.77;;;;;;;18.13;63.94;102183.34;5054090;28;20025;-82
2022/06/17 06:31:02;;;;;;;19.33;12.60;;;;;;;18.27;63.68;102192.25;5035559;28;20074;-81
2022/06/17 06:33:27;;;;;;;16.97;12.70;;;;;;;18.35;64.22;102189.19;5051646;28;20117;-81
2022/06/17 06:35:53;;;;;;;18.73;12.33;;;;;;;18.41;63.51;102203.06;5053660;28;20475;-81
2022/06/17 06:38:18;;;;;;;16.40;12.37;;;;;;;18.50;63.44;102198.91;5054584;28;20060;-81
2022/06/17 06:40:44;;;;;;;17.07;12.53;;;;;;;18.60;63.84;102204.69;5053342;28;20033;-81
2022/06/17 06:43:21;;;;;;;17.97;12.63;;;;;;;18.65;63.55;102204.81;5051411;28;20353;-81
2022/06/17 06:45:50;;;;;;;18.80;12.20;;;;;;;18.56;62.47;102187.00;5062997;28;20673;-81
2022/06/17 06:48:18;;;;;;;18.20;12.40;;;;;;;18.72;62.78;102197.31;5055649;28;20041;-82
2022/06/17 06:50:44;;;;;;;18.57;12.70;;;;;;;18.77;62.27;102196.63;5068019;28;20078;-81
2022/06/17 06:53:10;;;;;;;15.97;12.23;;;;;;;18.84;62.49;102193.78;5051179;28;20108;-81
2022/06/17 06:55:36;;;;;;;16.80;12.03;;;;;;;18.88;62.59;102203.25;5032046;28;20025;-82
2022/06/17 06:58:13;;;;;;;16.37;12.77;;;;;;;18.91;61.90;102201.97;5048857;28;20095;-81
2022/06/17 07:00:48;;;;;;;15.20;11.83;;;;;;;18.97;62.29;102201.00;5052430;28;20100;-81
2022/06/17 07:03:15;;;;;;;17.50;12.43;;;;;;;19.05;62.04;102201.50;5052975;28;20449;-81
2022/06/17 07:05:43;;;;;;;16.87;12.33;;;;;;;19.20;62.14;102202.94;5050786;28;20033;-82
2022/06/17 07:08:11;;;;;;;16.03;12.40;;;;;;;19.25;61.10;102202.25;5075626;28;20054;-81
2022/06/17 07:10:37;;;;;;;17.57;12.33;;;;;;;19.36;60.64;102202.25;5068923;28;20029;-82
2022/06/17 07:13:05;;;;;;;16.73;12.93;;;;;;;19.46;60.65;102207.19;5051835;28;20120;-82
2022/06/17 07:15:31;;;;;;;16.42;12.02;;;;;;;19.62;60.98;102204.78;5061335;28;20024;-81
2022/06/17 07:17:56;;;;;;;17.17;12.23;;;;;;;19.78;59.67;102206.78;5055525;28;20043;-81
2022/06/17 07:20:23;;;;;;;18.70;12.27;;;;;;;19.95;59.25;102203.31;5059280;28;20031;-81
2022/06/17 07:22:49;;;;;;;14.70;10.75;;;;;;;20.19;59.02;102204.13;5055180;28;20027;-80
2022/06/17 07:25:15;;;;;;;16.08;10.98;;;;;;;20.24;57.04;102190.47;5057762;28;20039;-79
2022/06/17 07:27:40;;;;;;;17.48;11.95;;;;;;;20.33;56.13;102188.16;5067030;28;20029;-80
2022/06/17 07:30:06;;;;;;;13.00;9.75;;;;;;;20.44;55.62;102186.44;5039219;28;20413;-80
2022/06/17 07:32:31;;;;;;;12.18;8.63;;;;;;;20.50;54.85;102188.22;5055857;28;20021;-79
2022/06/17 07:34:57;;;;;;;14.85;9.20;;;;;;;20.58;54.56;102196.91;5038596;28;20047;-80
2022/06/17 07:40:07;;;;;;;15.27;9.02;;;;;;;20.74;54.13;102195.31;5056636;28;20520;-79
2022/06/17 07:42:38;;;;;;;13.00;8.45;;;;;;;20.84;54.24;102191.91;5056769;28;20036;-78
2022/06/17 07:45:12;;;;;;;14.07;8.90;;;;;;;20.94;53.56;102199.50;5055200;28;20025;-80
2022/06/17 07:47:40;;;;;;;;;;;;;;;21.13;55.74;102216.63;5027538;28;20024;-79
2022/06/17 07:50:08;;;;;;;14.15;9.60;;;;;;;21.10;54.22;102219.06;5053974;28;19916;-80
2022/06/17 07:52:33;;;;;;;11.93;8.40;;;;;;;21.28;55.89;102229.84;5056912;28;20033;-80
2022/06/17 07:54:59;;;;;;;13.98;9.60;;;;;;;21.41;54.05;102223.97;5036955;28;20036;-81
2022/06/17 07:57:24;;;;;;;12.35;8.27;;;;;;;21.68;55.31;102215.06;5055697;28;20032;-81
2022/06/17 07:59:50;;;;;;;12.75;8.23;;;;;;;21.86;54.06;102202.06;5065430;28;20072;-81
2022/06/17 08:02:15;;;;;;;13.82;8.27;;;;;;;21.88;51.55;102203.47;5055457;28;20147;-81
2022/06/17 08:04:41;;;;;;;13.52;7.90;;;;;;;22.05;53.06;102191.53;5036672;28;20025;-81
2022/06/17 08:07:07;;;;;;;10.43;7.85;;;;;;;22.16;50.63;102200.78;5055312;28;20029;-81
2022/06/17 08:09:33;;;;;;;12.15;6.57;;;;;;;22.36;51.51;102203.81;5053693;28;20079;-81
2022/06/17 08:11:58;;;;;;;9.63;6.20;;;;;;;22.57;53.99;102207.63;5055392;28;20037;-81
2022/06/17 08:14:24;;;;;;;11.38;6.40;;;;;;;22.71;52.09;102221.88;5055838;28;20032;-82
2022/06/17 08:16:49;;;;;;;11.23;6.65;;;;;;;22.89;51.52;102228.94;5075634;28;20118;-81
2022/06/17 08:19:15;;;;;;;11.25;6.80;;;;;;;22.95;48.40;102232.59;5068602;28;20087;-81
2022/06/17 08:21:41;;;;;;;11.82;5.72;;;;;;;22.90;46.82;102222.34;5055082;28;20473;-80
2022/06/17 08:24:07;;;;;;;11.55;5.60;;;;;;;23.02;47.51;102221.31;5054866;28;20457;-81
2022/06/17 08:26:32;;;;;;;6.53;5.00;;;;;;;23.04;46.54;102219.97;5054440;28;20500;-81
2022/06/17 08:28:58;;;;;;;6.40;4.82;;;;;;;23.05;47.63;102224.41;5058428;28;20052;-81
2022/06/17 08:31:24;;;;;;;10.43;5.10;;;;;;;23.14;46.78;102232.25;5038359;28;20057;-81
2022/06/17 08:33:49;;;;;;;8.32;4.78;;;;;;;23.08;46.13;102220.28;5055181;28;20032;-81
2022/06/17 08:36:18;;;;;;;11.02;5.75;;;;;;;23.01;45.08;102214.97;5053162;28;20024;-81
2022/06/17 08:39:00;;;;;;;8.60;5.03;;;;;;;23.08;45.46;102207.28;5054725;28;20107;-82
2022/06/17 08:41:33;;;;;;;9.20;5.53;;;;;;;23.07;44.62;102211.13;5054760;28;20029;-81
2022/06/17 08:44:34;;;;;;;7.65;5.15;;;;;;;23.25;45.20;102209.09;5054571;28;20028;-81
2022/06/17 08:47:29;;;;;;;10.38;5.97;;;;;;;23.32;45.60;102201.41;5053993;28;20036;-81
2022/06/17 08:50:22;;;;;;;9.80;5.70;;;;;;;23.45;44.70;102194.59;5044902;28;20033;-81
2022/06/17 08:53:05;;;;;;;8.68;5.65;;;;;;;23.39;44.98;102196.50;5050307;28;20025;-82
2022/06/17 08:55:57;;;;;;;11.60;5.80;;;;;;;23.41;44.91;102199.81;5058344;28;20078;-81
2022/06/17 08:58:41;;;;;;;8.25;4.90;;;;;;;23.36;42.77;102201.72;5042523;28;20369;-80
2022/06/17 09:01:27;;;;;;;10.23;5.03;;;;;;;23.42;42.48;102212.56;5065133;28;20028;-82
2022/06/17 09:04:30;;;;;;;9.40;4.45;;;;;;;23.69;43.68;102210.78;5044470;28;20422;-81
2022/06/17 09:07:27;;;;;;;5.95;4.00;;;;;;;23.94;44.78;102210.94;5034735;28;20095;-81
2022/06/17 09:10:23;;;;;;;9.40;4.47;;;;;;;24.18;43.44;102218.81;5021329;28;20044;-81
2022/06/17 09:12:57;;;;;;;5.72;3.80;;;;;;;24.60;42.24;102219.75;5051581;28;20355;-81
2022/06/17 09:15:37;;;;;;;8.43;4.70;;;;;;;25.03;42.77;102212.09;5053923;28;20079;-82
2022/06/17 09:18:35;;;;;;;12.63;3.90;;;;;;;25.43;42.59;102204.91;5052649;28;20346;-81
2022/06/17 09:21:15;;;;;;;9.95;3.70;;;;;;;25.39;38.48;102195.47;5020254;28;20033;-82
2022/06/17 09:23:42;;;;;;;14.82;4.88;;;;;;;25.56;40.08;102197.09;5054450;28;20364;-81
2022/06/17 09:26:26;;;;;;;16.02;4.30;;;;;;;25.80;39.48;102200.09;5054052;28;20025;-81
2022/06/17 09:29:14;;;;;;;;;;;;;;;25.98;36.86;102195.84;5054940;28;20033;-81
2022/06/17 09:31:50;;;;;;;14.55;4.60;;;;;;;26.10;38.83;102199.16;5043595;28;20333;-84
2022/06/17 09:34:23;;;;;;;20.35;4.75;;;;;;;26.36;40.29;102199.03;5039321;28;20037;-84
2022/06/17 09:37:02;;;;;;;8.18;3.58;;;;;;;26.49;36.92;102189.22;5040706;28;20029;-85
2022/06/17 09:39:52;;;;;;;10.68;4.40;;;;;;;26.46;39.66;102192.56;5040792;28;20118;-83
2022/06/17 09:42:25;;;;;;;21.20;5.05;;;;;;;26.82;39.26;102206.28;5051770;28;20044;-82
2022/06/17 09:45:08;;;;;;;7.53;4.30;;;;;;;26.51;36.42;102194.50;5058044;28;20021;-81
2022/06/17 09:47:46;;;;;;;6.60;3.90;;;;;;;26.40;39.43;102199.28;5045888;28;20252;-84
2022/06/17 09:50:30;;;;;;;8.27;4.10;;;;;;;26.63;37.00;102204.13;5042566;28;20033;-84
2022/06/17 09:53:02;;;;;;;8.93;4.30;;;;;;;26.67;37.57;102215.53;5040676;28;20040;-84
2022/06/17 09:55:37;;;;;;;7.32;4.28;;;;;;;26.71;37.24;102208.28;5041470;28;20035;-85
2022/06/17 09:58:18;;;;;;;9.68;4.22;;;;;;;26.93;36.86;102207.03;5041588;28;20567;-83
2022/06/17 10:00:53;;;;;;;7.82;4.20;;;;;;;27.19;37.22;102202.06;5041825;28;20044;-83
2022/06/17 10:03:25;;;;;;;12.75;5.18;;;;;;;26.91;35.26;102192.56;5041815;28;20067;-83
2022/06/17 10:06:12;;;;;;;14.30;5.03;;;;;;;26.87;35.21;102194.28;5041535;28;20749;-82
2022/06/17 10:08:49;;;;;;;7.97;4.43;;;;;;;26.81;35.18;102187.94;5040970;28;20489;-84
2022/06/17 10:11:23;;;;;;;8.57;5.00;;;;;;;26.88;36.58;102174.50;5041568;28;20053;-82
2022/06/17 10:14:00;;;;;;;11.15;5.15;;;;;;;26.82;35.84;102174.84;5041142;28;20071;-83
2022/06/17 10:19:50;;;;;;;10.35;4.95;;;;;;;27.15;36.38;102169.56;5041578;28;20063;-82
2022/06/17 10:22:24;;;;;;;8.93;5.30;;;;;;;27.38;36.43;102163.22;5052066;28;20104;-82
2022/06/17 10:25:12;;;;;;;8.85;5.18;;;;;;;27.43;36.94;102163.19;5073946;28;20028;-82
2022/06/17 10:28:02;;;;;;;11.90;5.55;;;;;;;27.91;36.37;102153.16;5054599;28;20047;-82
2022/06/17 10:30:33;;;;;;;11.25;4.65;;;;;;;27.85;37.86;102157.13;5058621;28;20028;-81
2022/06/17 10:32:58;;;;;;;9.60;4.82;;;;;;;28.06;34.78;102154.94;5052907;28;20101;-82
2022/06/17 10:35:30;;;;;;;11.93;5.45;;;;;;;28.21;34.54;102146.34;5053368;28;20088;-82
2022/06/17 10:38:00;;;;;;;7.90;4.53;;;;;;;28.35;35.36;102146.44;5051751;28;20025;-82
2022/06/17 10:40:29;;;;;;;8.57;4.07;;;;;;;28.23;33.76;102152.47;5049310;28;20106;-83
2022/06/17 10:46:29;;;;;;;8.63;4.20;;;;;;;28.33;34.38;102161.78;5040220;28;20072;-85
2022/06/17 10:49:16;;;;;;;6.28;4.03;;;;;;;27.81;33.48;102148.53;5043988;28;20401;-84
2022/06/17 10:51:44;;;;;;;7.57;3.78;;;;;;;28.10;33.89;102154.03;5044751;28;20481;-84
2022/06/17 10:54:38;;;;;;;8.02;3.70;;;;;;;28.01;32.06;102146.66;5044120;28;21513;-81
2022/06/17 10:57:09;;;;;;;7.80;3.50;;;;;;;27.69;32.78;102143.41;5028175;28;20108;-84
2022/06/17 10:59:39;;;;;;;7.97;3.50;;;;;;;27.94;32.70;102130.28;5044226;28;20472;-84
2022/06/17 11:02:05;;;;;;;8.88;3.67;;;;;;;27.94;33.52;102130.28;5044291;28;20071;-83
2022/06/17 11:04:36;;;;;;;7.43;3.58;;;;;;;27.86;33.70;102137.31;5043290;28;20063;-82
2022/06/17 11:07:06;;;;;;;5.18;3.08;;;;;;;28.04;33.09;102129.34;5043835;28;20622;-80
2022/06/17 11:09:40;;;;;;;9.35;3.72;;;;;;;28.52;34.61;102128.34;5044519;28;20044;-84
2022/06/17 11:12:28;;;;;;;8.02;4.00;;;;;;;28.52;34.27;102128.34;5043916;28;20037;-81
2022/06/17 11:14:57;;;;;;;6.13;2.80;;;;;;;28.75;33.68;102126.59;5043814;28;20151;-82
2022/06/17 11:17:38;;;;;;;4.47;3.08;;;;;;;28.73;32.56;102118.53;5043415;28;20071;-87
2022/06/17 11:20:15;;;;;;;7.13;3.00;;;;;;;28.44;31.68;102111.16;5044109;28;21435;-83
2022/06/17 11:23:09;;;;;;;10.70;3.20;;;;;;;28.56;33.91;102113.50;5043016;28;20036;-83
2022/06/17 11:25:38;;;;;;;6.25;2.70;;;;;;;28.60;32.90;102113.69;5031610;28;20129;-81
2022/06/17 11:28:31;;;;;;;5.35;2.50;;;;;;;28.38;30.99;102101.25;5043444;28;20546;-82
2022/06/17 11:31:01;;;;;;;7.88;2.65;;;;;;;28.19;32.47;102097.63;5043203;28;20040;-80
2022/06/17 11:33:35;;;;;;;7.22;2.97;;;;;;;28.55;35.36;102097.91;5042640;28;20694;-81
2022/06/17 11:36:16;;;;;;;5.70;2.90;;;;;;;28.84;31.94;102093.25;5043390;28;20020;-82
2022/06/17 11:38:41;;;;;;;5.82;2.80;;;;;;;29.09;32.50;102089.16;5042984;28;20163;-81
2022/06/17 11:41:08;;;;;;;5.43;2.70;;;;;;;29.20;31.68;102087.84;5042951;28;20048;-81
2022/06/17 11:43:34;;;;;;;6.72;2.72;;;;;;;29.08;31.82;102082.75;5041646;28;20045;-82
2022/06/17 11:46:07;;;;;;;3.95;2.30;;;;;;;29.31;34.25;102082.91;5043637;28;20039;-82
2022/06/17 11:48:35;;;;;;;3.95;2.25;;;;;;;29.19;31.60;102080.59;5042372;28;20371;-80